Time;durP1;ratioP1;P1;durP2;ratioP2;P2;SDS_P1;SDS_P2;PMS_P1;PMS_P2;Temp;Humidity;BMP_temperature;BMP_pressure;BME280_temperature;BME280_humidity;BME280_pressure;Samples;Min_cycle;Max_cycle;Signal;HPM_P1;HPM_P2
2023/08/19 00:00:19;;;;;;;5.10;2.40;;;;;;;24.52;53.42;94920.25;4990873;28;20424;-77
2023/08/19 00:02:44;;;;;;;3.25;2.22;;;;;;;24.66;53.49;94939.09;4990544;28;20523;-77
2023/08/19 00:05:10;;;;;;;5.75;2.45;;;;;;;24.66;53.77;94942.59;4988137;28;20428;-77
2023/08/19 00:07:36;;;;;;;6.00;2.47;;;;;;;24.59;53.61;94944.06;4989605;28;20416;-76
2023/08/19 00:10:03;;;;;;;6.03;3.00;;;;;;;24.60;54.24;94943.00;4989954;28;20420;-77
2023/08/19 00:12:29;;;;;;;9.55;3.20;;;;;;;24.54;54.35;94946.88;4991459;28;20189;-77
2023/08/19 00:14:55;;;;;;;5.25;2.60;;;;;;;24.51;54.57;94936.69;4990134;28;20990;-77
2023/08/19 00:17:24;;;;;;;6.80;2.70;;;;;;;24.54;54.35;94944.19;4989457;28;20973;-77
2023/08/19 00:19:51;;;;;;;4.65;2.35;;;;;;;24.53;54.43;94942.56;4971369;28;20439;-77
2023/08/19 00:22:19;;;;;;;3.78;2.20;;;;;;;24.56;54.32;94945.47;4987997;28;20438;-77
2023/08/19 00:24:45;;;;;;;5.05;2.40;;;;;;;24.58;54.30;94955.94;4989969;28;20523;-77
2023/08/19 00:27:13;;;;;;;5.93;2.70;;;;;;;24.46;54.61;94942.16;4989631;28;20507;-77
2023/08/19 00:29:38;;;;;;;4.43;2.20;;;;;;;24.49;54.43;94933.47;4989596;28;20527;-76
2023/08/19 00:32:04;;;;;;;6.43;2.78;;;;;;;24.42;54.89;94929.28;4990054;28;20423;-76
2023/08/19 00:34:29;;;;;;;5.82;2.67;;;;;;;24.37;54.74;94934.78;4971575;28;20443;-77
2023/08/19 00:36:56;;;;;;;4.43;2.87;;;;;;;24.17;55.41;94929.69;4989647;28;21145;-76
2023/08/19 00:39:21;;;;;;;3.75;2.50;;;;;;;24.16;55.36;94911.16;4989328;28;20428;-77
2023/08/19 00:41:48;;;;;;;6.40;2.60;;;;;;;24.17;55.44;94924.31;4990567;28;20438;-77
2023/08/19 00:44:13;;;;;;;7.68;2.92;;;;;;;24.19;55.28;94915.94;4992555;28;20414;-77
2023/08/19 00:46:40;;;;;;;5.53;2.20;;;;;;;24.18;55.39;94917.03;4994797;28;20181;-76
2023/08/19 00:49:05;;;;;;;8.48;2.92;;;;;;;23.99;55.28;94900.94;4975880;28;20416;-76
2023/08/19 00:51:31;;;;;;;5.27;2.57;;;;;;;24.14;55.21;94916.00;4993084;28;20424;-77
2023/08/19 00:54:00;;;;;;;3.07;2.40;;;;;;;24.17;55.13;94910.84;4992981;28;20799;-77
2023/08/19 00:56:25;;;;;;;4.57;2.47;;;;;;;24.15;55.36;94917.63;4991696;28;20419;-77
2023/08/19 00:58:51;;;;;;;6.80;2.53;;;;;;;24.05;55.34;94900.53;4975669;28;20454;-76
2023/08/19 01:01:16;;;;;;;9.97;3.10;;;;;;;24.11;55.11;94914.72;4991482;28;20792;-77
2023/08/19 01:03:42;;;;;;;4.33;2.33;;;;;;;24.01;55.50;94902.25;4993272;28;20420;-76
2023/08/19 01:06:39;;;;;;;3.55;2.50;;;;;;;24.15;55.32;94915.72;4992807;28;20416;-77
2023/08/19 01:09:20;;;;;;;3.95;2.30;;;;;;;24.13;55.33;94915.22;4993372;28;20424;-77
2023/08/19 01:11:46;;;;;;;3.78;2.60;;;;;;;24.06;55.84;94928.25;4991226;28;20938;-76
2023/08/19 01:14:28;;;;;;;8.98;2.65;;;;;;;24.08;55.82;94918.00;4992112;28;20493;-77
2023/08/19 01:16:54;;;;;;;5.22;2.63;;;;;;;23.94;55.74;94917.16;4993123;28;20424;-76
2023/08/19 01:19:29;;;;;;;5.40;2.75;;;;;;;23.88;56.59;94923.69;4992489;28;20446;-76
2023/08/19 01:22:02;;;;;;;7.93;2.60;;;;;;;23.88;56.21;94927.19;4993536;28;20408;-76
2023/08/19 01:24:39;;;;;;;5.65;2.63;;;;;;;23.79;56.29;94906.63;4992149;28;20435;-77
2023/08/19 01:27:23;;;;;;;5.30;2.73;;;;;;;23.78;56.83;94923.88;4990917;28;20443;-76
2023/08/19 01:29:48;;;;;;;5.13;2.70;;;;;;;23.77;56.65;94920.38;4992674;28;20855;-76
2023/08/19 01:32:15;;;;;;;5.90;2.90;;;;;;;23.73;56.79;94921.22;4993679;28;20447;-77
2023/08/19 01:34:41;;;;;;;6.13;2.83;;;;;;;23.67;56.80;94915.13;4993086;28;20415;-77
2023/08/19 01:37:13;;;;;;;4.00;2.53;;;;;;;23.57;57.15;94901.84;4992805;28;21268;-77
2023/08/19 01:39:42;;;;;;;5.95;2.80;;;;;;;23.56;56.92;94901.03;4991232;28;20443;-77
2023/08/19 01:42:08;;;;;;;5.10;2.53;;;;;;;23.53;57.13;94904.31;4993492;28;20412;-77
2023/08/19 01:44:35;;;;;;;4.33;2.50;;;;;;;23.38;57.71;94899.13;4993706;28;20412;-77
2023/08/19 01:47:16;;;;;;;4.80;2.90;;;;;;;23.37;57.86;94899.41;4992018;28;20459;-77
2023/08/19 01:49:44;;;;;;;5.28;2.85;;;;;;;23.20;57.94;94881.88;4992675;28;20446;-77
2023/08/19 01:52:14;;;;;;;6.60;3.47;;;;;;;23.33;57.97;94899.19;4991679;28;20436;-77
2023/08/19 01:54:40;;;;;;;7.72;3.20;;;;;;;23.31;57.77;94890.63;4992323;28;20424;-77
2023/08/19 01:57:06;;;;;;;5.65;2.78;;;;;;;23.32;57.85;94890.34;4992885;28;20431;-77
2023/08/19 01:59:32;;;;;;;8.30;3.08;;;;;;;23.25;58.18;94892.59;4992742;28;20447;-77
2023/08/19 02:01:58;;;;;;;4.97;3.00;;;;;;;23.27;58.17;94900.34;4991748;28;20442;-77
2023/08/19 02:04:23;;;;;;;5.38;2.85;;;;;;;23.25;58.32;94903.34;4991828;28;20542;-77
2023/08/19 02:06:49;;;;;;;6.73;2.90;;;;;;;23.21;58.73;94912.25;4990023;28;20495;-77
2023/08/19 02:09:14;;;;;;;5.43;3.00;;;;;;;23.11;58.98;94901.63;4991274;28;20415;-77
2023/08/19 02:11:40;;;;;;;4.90;2.90;;;;;;;23.07;58.94;94900.63;4990781;28;20754;-77
2023/08/19 02:14:05;;;;;;;7.72;3.17;;;;;;;23.05;59.06;94900.09;4989364;28;20913;-77
2023/08/19 02:16:30;;;;;;;5.73;3.03;;;;;;;22.93;59.30;94893.25;4986205;28;20998;-77
2023/08/19 02:18:59;;;;;;;7.47;3.10;;;;;;;22.95;59.42;94901.81;4991783;28;20432;-77
2023/08/19 02:21:25;;;;;;;6.07;2.92;;;;;;;23.03;59.36;94902.25;4989446;28;20943;-77
2023/08/19 02:23:51;;;;;;;4.23;2.73;;;;;;;22.95;59.66;94904.50;4989614;28;20431;-77
2023/08/19 02:26:16;;;;;;;5.22;3.08;;;;;;;23.05;59.11;94903.59;4989773;28;20518;-77
2023/08/19 02:28:41;;;;;;;7.07;3.10;;;;;;;22.95;59.67;94890.28;4990913;28;20503;-77
2023/08/19 02:31:07;;;;;;;6.03;3.27;;;;;;;22.98;59.50;94905.81;4992259;28;20422;-77
2023/08/19 02:33:32;;;;;;;8.40;3.27;;;;;;;22.98;59.33;94905.03;4991846;28;20958;-77
2023/08/19 02:35:58;;;;;;;6.53;3.23;;;;;;;22.99;59.21;94909.31;4992060;28;20432;-77
2023/08/19 02:38:23;;;;;;;6.00;2.97;;;;;;;23.01;59.03;94905.22;4991143;28;20442;-77
2023/08/19 02:40:50;;;;;;;6.28;3.05;;;;;;;22.72;58.58;94867.69;4992694;28;20632;-77
2023/08/19 02:43:16;;;;;;;7.55;2.90;;;;;;;22.95;59.01;94915.25;4991070;28;20415;-78
2023/08/19 02:45:41;;;;;;;4.18;2.83;;;;;;;22.85;59.52;94901.94;4991615;28;20418;-77
2023/08/19 02:48:07;;;;;;;5.57;3.10;;;;;;;22.82;59.62;94909.78;4992045;28;20503;-77
2023/08/19 02:50:33;;;;;;;7.63;3.07;;;;;;;22.83;59.34;94914.06;4992000;28;20754;-76
2023/08/19 02:52:58;;;;;;;5.70;2.90;;;;;;;22.80;59.43;94915.41;4991259;28;20424;-77
2023/08/19 02:55:24;;;;;;;5.80;3.13;;;;;;;22.51;59.78;94907.38;4985853;28;20427;-76
2023/08/19 02:57:50;;;;;;;5.77;3.03;;;;;;;22.45;60.55;94913.09;4986249;28;20447;-76
2023/08/19 03:00:15;;;;;;;5.55;3.20;;;;;;;22.39;60.86;94911.53;4972813;28;20423;-77
2023/08/19 03:02:44;;;;;;;6.93;2.97;;;;;;;22.47;60.55;94914.41;4991115;28;20419;-76
2023/08/19 03:05:10;;;;;;;6.65;3.20;;;;;;;22.56;60.36;94920.75;4989794;28;20847;-76
2023/08/19 03:07:35;;;;;;;3.07;2.67;;;;;;;22.59;59.87;94917.47;4990506;28;20420;-76
2023/08/19 03:10:01;;;;;;;5.30;3.03;;;;;;;22.51;60.14;94911.94;4990195;28;20432;-76
2023/08/19 03:12:26;;;;;;;3.30;2.80;;;;;;;22.55;60.03;94912.97;4990502;28;20431;-76
2023/08/19 03:14:51;;;;;;;5.97;3.35;;;;;;;22.51;59.95;94923.47;4989966;28;20424;-76
2023/08/19 03:17:17;;;;;;;4.93;3.73;;;;;;;22.46;60.44;94915.50;4991110;28;20470;-76
2023/08/19 03:19:43;;;;;;;6.53;3.23;;;;;;;22.42;60.37;94909.06;4990503;28;20448;-76
2023/08/19 03:22:08;;;;;;;11.30;3.40;;;;;;;22.44;60.13;94923.00;4990754;28;20447;-76
2023/08/19 03:24:33;;;;;;;6.77;3.13;;;;;;;22.45;60.00;94921.94;4973703;28;20453;-76
2023/08/19 03:26:59;;;;;;;8.10;3.40;;;;;;;22.48;60.45;94917.88;4990123;28;20442;-76
2023/08/19 03:29:25;;;;;;;10.43;4.00;;;;;;;22.49;60.04;94914.91;4990953;28;20483;-77
2023/08/19 03:31:50;;;;;;;9.00;2.83;;;;;;;22.48;60.04;94915.22;4992312;28;20597;-77
2023/08/19 03:34:16;;;;;;;4.07;3.00;;;;;;;22.33;60.60;94905.41;4990755;28;20550;-77
2023/08/19 03:36:41;;;;;;;6.03;3.20;;;;;;;22.28;60.88;94913.50;4990487;28;20424;-77
2023/08/19 03:39:07;;;;;;;5.53;3.13;;;;;;;22.34;60.57;94906.19;4990592;28;20489;-77
2023/08/19 03:41:32;;;;;;;6.00;3.05;;;;;;;22.20;60.66;94912.25;4990290;28;20481;-77
2023/08/19 03:43:57;;;;;;;5.63;3.10;;;;;;;22.14;60.49;94910.66;4991441;28;20510;-77
2023/08/19 03:46:23;;;;;;;5.18;2.60;;;;;;;22.26;60.48;94912.19;4991389;28;20412;-77
2023/08/19 03:48:48;;;;;;;5.80;3.27;;;;;;;22.29;59.90;94914.31;4990221;28;20451;-77
2023/08/19 03:51:14;;;;;;;5.90;3.53;;;;;;;22.44;59.45;94914.16;4990068;28;20443;-77
2023/08/19 03:53:40;;;;;;;6.13;3.28;;;;;;;22.50;59.68;94919.19;4990800;28;20419;-77
2023/08/19 03:56:05;;;;;;;6.40;3.27;;;;;;;22.33;59.88;94908.09;4989461;28;20431;-77
2023/08/19 03:58:30;;;;;;;7.87;3.33;;;;;;;22.42;59.59;94909.06;4990495;28;20427;-76
2023/08/19 04:01:08;;;;;;;6.50;3.10;;;;;;;22.03;60.03;94868.94;4990335;28;21000;-77
2023/08/19 04:03:34;;;;;;;5.80;3.25;;;;;;;22.36;59.92;94922.81;4989616;28;20446;-77
2023/08/19 04:05:59;;;;;;;7.60;3.00;;;;;;;22.28;60.42;94913.50;4989624;28;20904;-77
2023/08/19 04:08:25;;;;;;;5.93;3.13;;;;;;;22.38;59.80;94908.06;4989423;28;20495;-77
2023/08/19 04:10:51;;;;;;;7.05;3.10;;;;;;;22.40;59.63;94907.78;4991497;28;20558;-77
2023/08/19 04:13:17;;;;;;;7.72;3.30;;;;;;;22.45;60.06;94924.63;4992051;28;20184;-77
2023/08/19 04:15:42;;;;;;;5.30;3.05;;;;;;;22.42;60.10;94927.84;4992007;28;20177;-77
2023/08/19 04:18:08;;;;;;;4.57;3.00;;;;;;;22.39;59.82;94920.38;4994769;28;20219;-77
2023/08/19 04:20:38;;;;;;;6.25;3.55;;;;;;;22.48;59.16;94916.00;4995271;28;20177;-77
2023/08/19 04:23:04;;;;;;;5.40;3.83;;;;;;;22.56;59.62;94936.84;4995749;28;20169;-77
2023/08/19 04:25:30;;;;;;;4.88;3.00;;;;;;;22.59;59.18;94936.28;4995403;28;20220;-77
2023/08/19 04:27:55;;;;;;;4.40;2.63;;;;;;;22.38;59.65;94907.25;4995741;28;20962;-77
2023/08/19 04:30:21;;;;;;;5.70;3.35;;;;;;;22.50;59.50;94923.75;4995399;28;20304;-77
2023/08/19 04:32:46;;;;;;;5.05;3.33;;;;;;;22.54;59.67;94935.53;4995757;28;20550;-77
2023/08/19 04:35:12;;;;;;;4.63;3.15;;;;;;;22.57;59.79;94945.72;4994996;28;20235;-77
2023/08/19 04:37:37;;;;;;;5.90;3.17;;;;;;;22.64;59.52;94943.50;4995335;28;20260;-77
2023/08/19 04:40:09;;;;;;;5.35;3.15;;;;;;;22.59;60.16;94946.19;4976406;28;20633;-77
2023/08/19 04:42:37;;;;;;;6.40;3.75;;;;;;;22.79;59.22;94943.34;4993423;28;20180;-77
2023/08/19 04:45:05;;;;;;;6.07;2.90;;;;;;;22.81;59.19;94943.06;4995289;28;20181;-77
2023/08/19 04:47:32;;;;;;;8.70;3.53;;;;;;;22.74;58.40;94921.13;4995344;28;20296;-77
2023/08/19 04:49:59;;;;;;;4.90;3.30;;;;;;;23.09;58.13;94952.94;4994882;28;20169;-77
2023/08/19 04:52:26;;;;;;;7.30;2.90;;;;;;;23.19;57.81;94955.50;4995161;28;20268;-77
2023/08/19 04:54:52;;;;;;;4.50;2.75;;;;;;;23.19;57.73;94963.56;4995182;28;20212;-77
2023/08/19 04:57:17;;;;;;;6.40;3.15;;;;;;;23.25;57.95;94964.31;4995335;28;20675;-77
2023/08/19 04:59:43;;;;;;;3.20;2.72;;;;;;;23.37;56.97;94959.31;4994510;28;20300;-77
2023/08/19 05:02:08;;;;;;;9.02;2.85;;;;;;;23.33;57.30;94964.50;4994876;28;20179;-77
2023/08/19 05:04:33;;;;;;;5.13;3.47;;;;;;;23.49;56.61;94962.44;4994349;28;20181;-77
2023/08/19 05:06:59;;;;;;;4.10;2.78;;;;;;;23.74;55.88;94973.91;4994596;28;20181;-77
2023/08/19 05:09:24;;;;;;;5.85;2.90;;;;;;;23.91;55.50;94969.63;4994985;28;20168;-77
2023/08/19 05:11:50;;;;;;;3.65;2.78;;;;;;;24.21;54.94;94976.50;4994275;28;20239;-77
2023/08/19 05:14:15;;;;;;;7.93;2.97;;;;;;;24.30;54.31;94979.31;4994471;28;20204;-77
2023/08/19 05:16:40;;;;;;;5.63;3.22;;;;;;;24.25;54.61;94974.78;4994517;28;20177;-77
2023/08/19 05:19:18;;;;;;;8.50;3.20;;;;;;;24.31;54.38;94970.13;4994253;28;20692;-77
2023/08/19 05:21:44;;;;;;;7.57;3.55;;;;;;;24.18;54.81;94963.59;4992578;28;20211;-77
2023/08/19 05:24:11;;;;;;;4.28;2.90;;;;;;;24.44;54.45;94972.88;4994427;28;20256;-77
2023/08/19 05:26:40;;;;;;;6.63;3.20;;;;;;;24.57;53.91;94971.28;4993519;28;20192;-77
2023/08/19 05:29:06;;;;;;;11.02;3.92;;;;;;;24.76;53.78;94976.63;4993065;28;20173;-77
2023/08/19 05:31:32;;;;;;;7.38;3.85;;;;;;;24.94;53.54;94966.91;4994495;28;20255;-77
2023/08/19 05:33:58;;;;;;;7.00;2.85;;;;;;;24.94;52.84;94967.69;4994511;28;20636;-77
2023/08/19 05:36:23;;;;;;;7.38;3.92;;;;;;;25.07;52.83;94963.44;4994524;28;20172;-77
2023/08/19 05:38:48;;;;;;;3.95;2.95;;;;;;;25.11;52.21;94959.81;4994206;28;20201;-78
2023/08/19 05:41:14;;;;;;;8.77;3.25;;;;;;;25.38;52.01;94961.72;4992981;28;20217;-78
2023/08/19 05:43:39;;;;;;;7.28;3.35;;;;;;;25.34;51.38;94949.16;4993559;28;20173;-77
2023/08/19 05:46:06;;;;;;;5.93;3.20;;;;;;;25.49;51.56;94962.31;4994055;28;20205;-78
2023/08/19 05:48:32;;;;;;;5.57;2.70;;;;;;;25.61;51.08;94954.50;4994458;28;20696;-77
2023/08/19 05:50:57;;;;;;;6.88;3.05;;;;;;;25.64;51.39;94958.50;4994191;28;20177;-78
2023/08/19 05:53:23;;;;;;;6.43;2.95;;;;;;;25.73;50.73;94960.19;4994103;28;20165;-77
2023/08/19 05:55:48;;;;;;;5.78;3.42;;;;;;;25.90;50.73;94954.94;4993181;28;20208;-77
2023/08/19 05:58:15;;;;;;;4.30;2.70;;;;;;;25.80;50.83;94955.19;4993822;28;20540;-78
2023/08/19 06:00:41;;;;;;;8.07;3.45;;;;;;;26.01;50.01;94952.03;4994095;28;20316;-78
2023/08/19 06:03:06;;;;;;;5.90;2.92;;;;;;;26.31;49.01;94962.13;4993082;28;20913;-78
2023/08/19 06:05:34;;;;;;;7.68;3.05;;;;;;;26.38;47.89;94954.38;4993888;28;20176;-77
2023/08/19 06:07:59;;;;;;;5.00;2.70;;;;;;;26.69;48.39;94957.13;4993667;28;20747;-78
2023/08/19 06:10:25;;;;;;;9.15;2.38;;;;;;;26.68;47.12;94964.44;4993625;28;20177;-78
2023/08/19 06:12:50;;;;;;;4.25;2.78;;;;;;;26.91;48.26;94967.09;4993653;28;20300;-77
2023/08/19 06:15:15;;;;;;;12.25;2.90;;;;;;;27.17;47.28;94973.41;4993561;28;20181;-78
2023/08/19 06:17:41;;;;;;;4.50;3.00;;;;;;;27.22;46.57;94973.31;4993490;28;20189;-77
2023/08/19 06:20:07;;;;;;;4.82;2.63;;;;;;;27.01;47.36;94973.03;4976242;28;20271;-78
2023/08/19 06:22:32;;;;;;;10.23;2.92;;;;;;;27.16;47.28;94990.75;4992402;28;20173;-78
2023/08/19 06:24:58;;;;;;;5.25;2.88;;;;;;;27.13;47.37;94999.50;4980512;28;20213;-78
2023/08/19 06:27:24;;;;;;;8.15;3.20;;;;;;;27.08;47.90;94993.41;4993505;28;20624;-78
2023/08/19 06:29:49;;;;;;;5.63;2.92;;;;;;;27.22;47.10;94994.94;4992832;28;20189;-78
2023/08/19 06:32:15;;;;;;;14.15;3.13;;;;;;;27.35;46.75;94993.22;4993312;28;20184;-78
2023/08/19 06:34:41;;;;;;;5.65;3.33;;;;;;;27.53;46.75;94991.34;4993585;28;20177;-78
2023/08/19 06:37:10;;;;;;;4.78;2.67;;;;;;;27.48;46.66;94991.50;4993350;28;20256;-78
2023/08/19 06:39:38;;;;;;;6.85;2.75;;;;;;;27.67;46.77;94995.59;4991648;28;20598;-78
2023/08/19 06:42:05;;;;;;;8.32;3.05;;;;;;;27.90;46.38;94995.44;4990498;28;20179;-77
2023/08/19 06:44:34;;;;;;;6.65;2.67;;;;;;;27.52;45.80;94993.25;4991560;28;20169;-78
2023/08/19 06:47:02;;;;;;;2.83;2.40;;;;;;;27.42;45.95;94994.34;4989635;28;20185;-78
2023/08/19 06:49:28;;;;;;;3.17;2.45;;;;;;;27.62;45.66;94994.91;4991472;28;20215;-78
2023/08/19 06:51:54;;;;;;;7.60;2.47;;;;;;;27.80;45.48;95004.66;4991932;28;20173;-78
2023/08/19 06:54:19;;;;;;;3.50;2.50;;;;;;;27.90;45.21;94996.25;4992106;28;20256;-77
2023/08/19 06:56:45;;;;;;;3.38;2.55;;;;;;;28.21;43.87;95003.47;4992310;28;20181;-78
2023/08/19 06:59:19;;;;;;;3.20;2.55;;;;;;;28.42;43.38;94996.31;4991338;28;21917;-78
2023/08/19 07:01:50;;;;;;;5.93;2.83;;;;;;;28.32;43.55;94983.06;4992319;28;20603;-78
2023/08/19 07:04:19;;;;;;;4.50;2.50;;;;;;;28.56;43.75;94982.56;4990123;28;20177;-78
2023/08/19 07:06:46;;;;;;;4.45;2.65;;;;;;;28.95;42.45;95000.56;4992874;28;20177;-78
2023/08/19 07:09:12;;;;;;;4.75;2.55;;;;;;;28.71;42.34;94993.72;4992123;28;20567;-74
2023/08/19 07:11:38;;;;;;;4.93;2.47;;;;;;;28.34;43.10;94997.09;4991722;28;20180;-74
2023/08/19 07:14:03;;;;;;;3.95;2.35;;;;;;;28.21;44.38;94981.78;4991569;28;20177;-74
2023/08/19 07:16:32;;;;;;;3.55;2.75;;;;;;;28.88;43.77;94993.72;4991533;28;20539;-74
2023/08/19 07:19:02;;;;;;;7.95;2.92;;;;;;;29.03;42.79;94989.69;4990371;28;20239;-74
2023/08/19 07:21:28;;;;;;;4.45;2.63;;;;;;;29.22;41.28;94976.53;4990129;28;20192;-74
2023/08/19 07:24:00;;;;;;;8.85;2.75;;;;;;;29.23;41.75;94988.19;4991515;28;20685;-75
2023/08/19 07:26:26;;;;;;;7.05;2.47;;;;;;;29.62;41.30;94982.44;4991391;28;20229;-75
2023/08/19 07:28:52;;;;;;;6.28;2.40;;;;;;;29.75;39.06;94971.66;4991727;28;20180;-75
2023/08/19 07:31:20;;;;;;;2.65;2.30;;;;;;;29.87;37.36;94991.53;4991364;28;20192;-74
2023/08/19 07:33:45;;;;;;;2.40;2.13;;;;;;;29.28;38.04;94983.34;4990877;28;20854;-76
2023/08/19 07:36:11;;;;;;;3.53;2.50;;;;;;;29.12;36.80;94997.78;4991120;28;20207;-74
2023/08/19 07:38:37;;;;;;;7.28;2.30;;;;;;;29.05;38.20;94979.31;4991063;28;20209;-75
2023/08/19 07:41:03;;;;;;;4.03;2.28;;;;;;;29.51;37.61;94983.91;4991956;28;20689;-78
2023/08/19 07:43:28;;;;;;;3.72;2.17;;;;;;;29.70;36.82;94997.06;4992179;28;20196;-77
2023/08/19 07:45:53;;;;;;;3.95;2.38;;;;;;;29.64;36.54;94999.19;4992363;28;20172;-77
2023/08/19 07:48:19;;;;;;;3.58;2.08;;;;;;;29.59;36.06;94985.78;4992035;28;20667;-76
2023/08/19 07:50:44;;;;;;;3.83;2.10;;;;;;;30.04;36.16;94989.84;4991966;28;20177;-77
2023/08/19 07:53:10;;;;;;;18.95;3.38;;;;;;;29.94;35.90;94986.41;4991134;28;20253;-78
2023/08/19 07:55:35;;;;;;;3.55;1.75;;;;;;;29.94;36.05;94991.81;4990071;28;20185;-77
2023/08/19 07:58:00;;;;;;;4.90;2.10;;;;;;;30.06;35.45;94968.59;4992311;28;20652;-77
2023/08/19 08:00:26;;;;;;;3.05;2.13;;;;;;;30.20;35.03;94978.06;4992116;28;20193;-77
2023/08/19 08:02:51;;;;;;;3.17;2.10;;;;;;;30.27;35.71;94993.84;4992049;28;20185;-77
2023/08/19 08:05:17;;;;;;;5.03;2.38;;;;;;;30.09;35.69;94963.31;4992450;28;20192;-77
2023/08/19 08:07:43;;;;;;;4.10;2.20;;;;;;;29.88;36.16;94982.25;4991436;28;20189;-77
2023/08/19 08:10:08;;;;;;;5.10;1.73;;;;;;;29.86;36.37;94994.56;4991377;28;20604;-77
2023/08/19 08:12:34;;;;;;;2.67;2.13;;;;;;;29.69;36.58;94998.19;4991497;28;20188;-77
2023/08/19 08:14:59;;;;;;;3.70;2.10;;;;;;;29.56;37.13;94978.31;4990636;28;20181;-77
2023/08/19 08:17:25;;;;;;;9.45;2.63;;;;;;;29.42;37.55;94985.88;4989845;28;20181;-77
2023/08/19 08:19:50;;;;;;;3.72;2.08;;;;;;;29.61;38.26;94993.59;4991989;28;20205;-75
2023/08/19 08:22:16;;;;;;;5.05;2.60;;;;;;;29.53;37.92;94997.94;4990467;28;20173;-74
2023/08/19 08:24:42;;;;;;;6.97;2.53;;;;;;;29.80;38.18;95001.31;4990876;28;20700;-74
2023/08/19 08:27:07;;;;;;;4.28;2.40;;;;;;;30.07;37.66;95000.84;4988779;28;20169;-73
2023/08/19 08:29:33;;;;;;;3.80;2.17;;;;;;;30.00;38.00;94997.88;4980211;28;20169;-73
2023/08/19 08:31:58;;;;;;;5.72;2.60;;;;;;;29.98;37.66;94991.97;4979452;28;20182;-74
2023/08/19 08:34:24;;;;;;;7.38;2.10;;;;;;;30.06;37.83;95001.97;4988190;28;20618;-75
2023/08/19 08:36:49;;;;;;;12.70;2.60;;;;;;;29.76;38.28;94984.88;4977033;28;20203;-77
2023/08/19 08:39:14;;;;;;;10.60;2.55;;;;;;;29.80;38.56;94980.41;4971817;28;20736;-76
2023/08/19 08:41:41;;;;;;;6.28;2.25;;;;;;;30.06;38.29;94988.41;4976038;28;20178;-75
2023/08/19 08:44:08;;;;;;;4.80;3.33;;;;;;;30.15;38.05;94983.69;4975821;28;20174;-76
2023/08/19 08:46:35;;;;;;;6.93;1.88;;;;;;;30.26;38.61;94995.78;4975829;28;20181;-74
2023/08/19 08:49:01;;;;;;;6.35;2.53;;;;;;;30.04;38.37;94968.91;4972832;28;20253;-75
2023/08/19 08:51:27;;;;;;;3.42;2.25;;;;;;;30.16;37.35;94998.06;4974509;28;20174;-76
2023/08/19 08:53:56;;;;;;;5.55;2.70;;;;;;;29.79;38.37;94988.88;4977643;28;20178;-75
2023/08/19 08:56:25;;;;;;;3.40;2.33;;;;;;;29.64;38.80;94982.09;4972766;28;20173;-75
2023/08/19 08:58:51;;;;;;;2.83;2.10;;;;;;;29.65;39.30;94978.25;4969539;28;20214;-75
2023/08/19 09:01:17;;;;;;;5.05;2.53;;;;;;;29.44;39.23;95004.53;4967241;28;20185;-75
2023/08/19 09:03:45;;;;;;;3.53;2.55;;;;;;;29.10;39.86;95000.03;4970738;28;20293;-75
2023/08/19 09:06:16;;;;;;;3.08;2.40;;;;;;;28.93;40.51;94991.94;4969836;28;20196;-74
2023/08/19 09:09:02;;;;;;;4.07;1.80;;;;;;;29.02;39.96;94992.72;4972670;28;20177;-74
2023/08/19 09:11:34;;;;;;;5.38;2.35;;;;;;;29.24;39.55;94995.16;4978774;28;20165;-75
2023/08/19 09:14:37;;;;;;;7.50;2.13;;;;;;;29.11;39.94;94979.91;4982164;28;20185;-75
2023/08/19 09:17:02;;;;;;;5.38;2.15;;;;;;;29.53;39.45;94964.59;4972407;28;20177;-75
2023/08/19 09:19:28;;;;;;;3.28;1.90;;;;;;;29.90;37.67;94968.38;4972028;28;20208;-76
2023/08/19 09:21:53;;;;;;;2.88;2.20;;;;;;;30.08;36.91;94961.72;4977168;28;20181;-73
2023/08/19 09:24:19;;;;;;;3.10;2.00;;;;;;;30.37;37.86;94968.97;4977554;28;20277;-73
2023/08/19 09:26:45;;;;;;;3.55;2.20;;;;;;;30.38;36.68;94973.28;4988099;28;20228;-73
2023/08/19 09:29:10;;;;;;;3.53;2.33;;;;;;;30.31;36.55;94973.81;4993480;28;20565;-74
2023/08/19 09:31:38;;;;;;;5.00;2.10;;;;;;;29.97;35.49;94968.66;4993955;28;20321;-77
2023/08/19 09:34:04;;;;;;;4.00;1.75;;;;;;;29.92;35.49;94966.13;4993185;28;20177;-79
2023/08/19 09:36:30;;;;;;;3.30;1.67;;;;;;;29.99;35.95;94955.56;4991993;28;20181;-79
2023/08/19 09:38:56;;;;;;;5.10;2.20;;;;;;;29.86;35.04;94953.84;4993728;28;20236;-78
2023/08/19 09:41:29;;;;;;;2.47;1.63;;;;;;;29.63;35.52;94973.16;4994013;28;20174;-73
2023/08/19 09:43:57;;;;;;;1.67;1.55;;;;;;;29.52;36.33;94941.28;4993920;28;20616;-80
2023/08/19 09:46:32;;;;;;;5.28;2.60;;;;;;;29.92;35.12;94945.19;4990976;28;20170;-75
2023/08/19 09:48:58;;;;;;;7.15;2.25;;;;;;;30.11;34.53;94960.22;4993194;28;20165;-75
2023/08/19 09:51:25;;;;;;;3.80;1.70;;;;;;;30.11;34.67;94961.03;4994066;28;20181;-77
2023/08/19 09:53:51;;;;;;;4.22;2.25;;;;;;;30.26;34.92;94968.59;4992453;28;20185;-79
2023/08/19 09:56:23;;;;;;;1.60;1.50;;;;;;;29.96;35.01;94965.16;4994407;28;20193;-79
2023/08/19 09:58:54;;;;;;;3.00;2.00;;;;;;;30.04;34.98;94963.50;4994023;28;20204;-76
2023/08/19 10:01:22;;;;;;;2.60;1.60;;;;;;;30.10;35.22;94970.31;4994090;28;20279;-80
2023/08/19 10:03:48;;;;;;;3.88;1.90;;;;;;;30.09;33.95;94954.34;4994317;28;20200;-74
2023/08/19 10:06:17;;;;;;;2.85;1.67;;;;;;;30.10;33.67;94951.28;4994109;28;20656;-80
2023/08/19 10:08:44;;;;;;;2.72;1.38;;;;;;;30.16;32.41;94973.63;4991620;28;20281;-77
2023/08/19 10:11:12;;;;;;;2.53;1.75;;;;;;;30.02;32.95;94976.59;4992232;28;20196;-76
2023/08/19 10:13:38;;;;;;;2.00;1.80;;;;;;;29.64;33.24;94928.63;4993312;28;20177;-76
2023/08/19 10:16:06;;;;;;;6.22;2.13;;;;;;;29.86;33.28;94970.94;4991836;28;20703;-80
2023/08/19 10:18:35;;;;;;;4.80;1.70;;;;;;;29.71;33.31;94949.78;4990629;28;20246;-78
2023/08/19 10:21:05;;;;;;;5.60;1.67;;;;;;;29.69;33.41;94953.97;4992686;28;20649;-75
2023/08/19 10:23:31;;;;;;;4.38;1.67;;;;;;;29.41;34.28;94946.28;4990802;28;20239;-75
2023/08/19 10:25:58;;;;;;;4.03;1.83;;;;;;;29.47;33.64;94972.13;4992091;28;20283;-74
2023/08/19 10:28:24;;;;;;;2.67;1.40;;;;;;;29.50;34.13;94970.66;4991863;28;20165;-77
2023/08/19 10:31:09;;;;;;;4.38;1.83;;;;;;;29.49;34.32;94952.81;4991819;28;20183;-77
2023/08/19 10:33:41;;;;;;;3.72;1.80;;;;;;;29.58;35.04;94950.81;4992758;28;20219;-80
2023/08/19 10:36:08;;;;;;;4.50;2.08;;;;;;;29.46;35.24;94935.25;4973910;28;20229;-76
2023/08/19 10:38:43;;;;;;;2.40;2.20;;;;;;;29.73;35.49;94946.75;4992377;28;21117;-79
2023/08/19 10:41:17;;;;;;;4.90;2.10;;;;;;;29.88;33.24;94951.59;4992223;28;20250;-74
2023/08/19 10:43:52;;;;;;;7.45;2.15;;;;;;;29.87;33.65;94939.16;4975183;28;20189;-73
2023/08/19 10:46:18;;;;;;;7.60;2.20;;;;;;;29.92;33.58;94941.69;4994976;28;20181;-79
2023/08/19 10:48:50;;;;;;;2.83;1.60;;;;;;;30.09;32.94;94947.00;4991422;28;20208;-75
2023/08/19 10:51:19;;;;;;;4.15;2.05;;;;;;;30.23;33.43;94950.22;4988887;28;20670;-75
2023/08/19 10:54:05;;;;;;;5.85;2.47;;;;;;;30.35;33.15;94944.88;4992896;28;20180;-74
2023/08/19 10:56:30;;;;;;;2.75;2.00;;;;;;;30.16;33.64;94943.75;4991992;28;20184;-79
2023/08/19 10:58:56;;;;;;;6.07;2.50;;;;;;;30.22;33.71;94929.63;4989514;28;20244;-74
2023/08/19 11:01:23;;;;;;;2.25;1.90;;;;;;;30.47;32.90;94937.88;4992626;28;20173;-74
2023/08/19 11:03:49;;;;;;;8.80;2.30;;;;;;;30.63;32.51;94944.28;4991459;28;20181;-75
2023/08/19 11:06:14;;;;;;;2.67;2.28;;;;;;;30.58;32.86;94955.38;4988885;28;20180;-75
2023/08/19 11:08:43;;;;;;;3.58;1.92;;;;;;;30.32;33.37;94937.38;4974680;28;20173;-77
2023/08/19 11:11:14;;;;;;;3.38;1.77;;;;;;;30.41;33.40;94959.03;4992423;28;20184;-77
2023/08/19 11:13:40;;;;;;;3.00;1.98;;;;;;;30.44;33.81;94944.78;4994660;28;20700;-77
2023/08/19 11:16:05;;;;;;;2.65;1.88;;;;;;;30.59;33.71;94946.91;4991068;28;20201;-77
2023/08/19 11:18:31;;;;;;;3.35;1.80;;;;;;;30.65;32.81;94950.97;4990812;28;20263;-75
2023/08/19 11:20:57;;;;;;;2.53;2.13;;;;;;;30.67;33.05;94932.41;4990923;28;20618;-74
2023/08/19 11:23:29;;;;;;;2.67;1.92;;;;;;;30.79;32.76;94934.34;4991655;28;20288;-75
2023/08/19 11:25:54;;;;;;;2.95;1.85;;;;;;;30.77;32.62;94946.72;4991632;28;20284;-77
2023/08/19 11:28:20;;;;;;;1.90;1.65;;;;;;;30.76;33.27;94932.31;4987878;28;20177;-77
2023/08/19 11:30:46;;;;;;;2.08;1.88;;;;;;;30.67;32.84;94931.63;4991882;28;20649;-77
2023/08/19 11:33:16;;;;;;;2.25;1.70;;;;;;;30.62;33.14;94946.22;4989565;28;20177;-77